sensor_id;sensor_type;location;lat;lon;timestamp;temperature;humidity
38854;DHT22;24606;51.992;4.198;2022-09-03T00:04:52;27.80;43.90
38854;DHT22;24606;51.992;4.198;2022-09-03T00:10:01;27.80;43.90
38854;DHT22;24606;51.992;4.198;2022-09-03T00:15:08;27.80;44.00
38854;DHT22;24606;51.992;4.198;2022-09-03T00:20:14;27.70;44.00
38854;DHT22;24606;51.992;4.198;2022-09-03T00:25:23;27.70;44.00
38854;DHT22;24606;51.992;4.198;2022-09-03T00:30:29;27.70;44.10
38854;DHT22;24606;51.992;4.198;2022-09-03T00:35:36;27.60;44.10
38854;DHT22;24606;51.992;4.198;2022-09-03T00:40:50;27.60;44.10
38854;DHT22;24606;51.992;4.198;2022-09-03T00:46:02;27.60;44.20
38854;DHT22;24606;51.992;4.198;2022-09-03T00:51:15;27.50;44.10
38854;DHT22;24606;51.992;4.198;2022-09-03T00:56:24;27.50;44.20
38854;DHT22;24606;51.992;4.198;2022-09-03T01:01:37;27.50;44.20
38854;DHT22;24606;51.992;4.198;2022-09-03T01:06:45;27.40;44.20
38854;DHT22;24606;51.992;4.198;2022-09-03T01:11:56;27.40;44.20
38854;DHT22;24606;51.992;4.198;2022-09-03T01:17:07;27.40;44.30
38854;DHT22;24606;51.992;4.198;2022-09-03T01:22:23;27.40;44.40
38854;DHT22;24606;51.992;4.198;2022-09-03T01:27:38;27.40;44.30
38854;DHT22;24606;51.992;4.198;2022-09-03T01:32:47;27.30;44.30
38854;DHT22;24606;51.992;4.198;2022-09-03T01:38:00;27.30;44.30
38854;DHT22;24606;51.992;4.198;2022-09-03T01:43:22;27.20;44.30
38854;DHT22;24606;51.992;4.198;2022-09-03T01:48:41;27.20;44.30
38854;DHT22;24606;51.992;4.198;2022-09-03T01:53:55;27.20;44.30
38854;DHT22;24606;51.992;4.198;2022-09-03T01:59:04;27.20;44.40
38854;DHT22;24606;51.992;4.198;2022-09-03T02:04:19;27.10;44.30
38854;DHT22;24606;51.992;4.198;2022-09-03T02:09:23;27.10;44.30
38854;DHT22;24606;51.992;4.198;2022-09-03T02:14:25;27.10;44.40
38854;DHT22;24606;51.992;4.198;2022-09-03T02:19:29;26.70;44.20
38854;DHT22;24606;51.992;4.198;2022-09-03T02:24:31;27.00;44.40
38854;DHT22;24606;51.992;4.198;2022-09-03T02:29:33;27.00;44.50
38854;DHT22;24606;51.992;4.198;2022-09-03T02:34:36;26.90;44.40
38854;DHT22;24606;51.992;4.198;2022-09-03T02:39:38;26.90;44.40
38854;DHT22;24606;51.992;4.198;2022-09-03T02:44:43;26.90;44.50
38854;DHT22;24606;51.992;4.198;2022-09-03T02:49:47;27.20;44.60
38854;DHT22;24606;51.992;4.198;2022-09-03T02:54:48;26.90;44.50
38854;DHT22;24606;51.992;4.198;2022-09-03T02:59:50;26.80;44.50
38854;DHT22;24606;51.992;4.198;2022-09-03T03:04:54;26.80;44.50
38854;DHT22;24606;51.992;4.198;2022-09-03T03:09:56;26.80;44.50
38854;DHT22;24606;51.992;4.198;2022-09-03T03:14:57;26.80;44.50
38854;DHT22;24606;51.992;4.198;2022-09-03T03:20:01;26.70;44.50
38854;DHT22;24606;51.992;4.198;2022-09-03T03:25:03;26.70;44.60
38854;DHT22;24606;51.992;4.198;2022-09-03T03:30:06;26.70;44.60
38854;DHT22;24606;51.992;4.198;2022-09-03T03:35:10;26.70;44.60
38854;DHT22;24606;51.992;4.198;2022-09-03T03:40:13;26.60;44.60
38854;DHT22;24606;51.992;4.198;2022-09-03T03:45:15;26.60;44.60
38854;DHT22;24606;51.992;4.198;2022-09-03T03:50:18;26.60;44.60
38854;DHT22;24606;51.992;4.198;2022-09-03T03:55:20;27.50;45.40
38854;DHT22;24606;51.992;4.198;2022-09-03T04:00:22;26.50;44.60
38854;DHT22;24606;51.992;4.198;2022-09-03T04:05:25;26.50;44.60
38854;DHT22;24606;51.992;4.198;2022-09-03T04:10:27;26.50;44.60
38854;DHT22;24606;51.992;4.198;2022-09-03T04:15:29;26.50;44.70
38854;DHT22;24606;51.992;4.198;2022-09-03T04:20:32;26.50;44.70
38854;DHT22;24606;51.992;4.198;2022-09-03T04:25:36;26.10;44.40
38854;DHT22;24606;51.992;4.198;2022-09-03T04:30:38;26.50;44.70
38854;DHT22;24606;51.992;4.198;2022-09-03T04:35:41;26.40;44.70
38854;DHT22;24606;51.992;4.198;2022-09-03T04:40:43;26.40;44.70
38854;DHT22;24606;51.992;4.198;2022-09-03T04:45:55;26.40;44.70
38854;DHT22;24606;51.992;4.198;2022-09-03T04:51:03;26.40;44.70
38854;DHT22;24606;51.992;4.198;2022-09-03T04:56:11;26.40;44.70
38854;DHT22;24606;51.992;4.198;2022-09-03T05:01:16;26.30;44.70
38854;DHT22;24606;51.992;4.198;2022-09-03T05:06:20;26.30;44.70
38854;DHT22;24606;51.992;4.198;2022-09-03T05:11:23;26.30;44.70
38854;DHT22;24606;51.992;4.198;2022-09-03T05:16:27;26.20;44.60
38854;DHT22;24606;51.992;4.198;2022-09-03T05:21:31;26.30;44.60
38854;DHT22;24606;51.992;4.198;2022-09-03T05:26:36;26.20;44.70
38854;DHT22;24606;51.992;4.198;2022-09-03T05:31:38;26.20;44.90
38854;DHT22;24606;51.992;4.198;2022-09-03T05:36:41;26.20;44.60
38854;DHT22;24606;51.992;4.198;2022-09-03T05:41:43;26.30;44.50
38854;DHT22;24606;51.992;4.198;2022-09-03T05:46:45;26.60;44.60
38854;DHT22;24606;51.992;4.198;2022-09-03T05:51:48;26.40;44.30
38854;DHT22;24606;51.992;4.198;2022-09-03T05:56:50;26.30;44.10
38854;DHT22;24606;51.992;4.198;2022-09-03T06:01:52;26.30;44.10
38854;DHT22;24606;51.992;4.198;2022-09-03T06:06:55;26.30;44.60
38854;DHT22;24606;51.992;4.198;2022-09-03T06:11:57;26.30;43.90
38854;DHT22;24606;51.992;4.198;2022-09-03T06:16:59;26.30;43.80
38854;DHT22;24606;51.992;4.198;2022-09-03T06:22:02;26.30;43.70
38854;DHT22;24606;51.992;4.198;2022-09-03T06:27:04;26.30;43.70
38854;DHT22;24606;51.992;4.198;2022-09-03T06:32:07;26.30;43.50
38854;DHT22;24606;51.992;4.198;2022-09-03T06:37:10;26.30;43.50
38854;DHT22;24606;51.992;4.198;2022-09-03T06:42:12;26.30;43.50
38854;DHT22;24606;51.992;4.198;2022-09-03T06:47:14;26.30;43.50
38854;DHT22;24606;51.992;4.198;2022-09-03T06:52:17;26.30;43.50
38854;DHT22;24606;51.992;4.198;2022-09-03T06:57:19;26.30;43.40
38854;DHT22;24606;51.992;4.198;2022-09-03T07:02:21;26.30;43.40
38854;DHT22;24606;51.992;4.198;2022-09-03T07:07:24;26.30;43.40
38854;DHT22;24606;51.992;4.198;2022-09-03T07:12:26;26.30;43.40
38854;DHT22;24606;51.992;4.198;2022-09-03T07:17:28;26.60;43.70
38854;DHT22;24606;51.992;4.198;2022-09-03T07:22:31;26.30;43.70
38854;DHT22;24606;51.992;4.198;2022-09-03T07:27:34;26.30;43.70
38854;DHT22;24606;51.992;4.198;2022-09-03T07:32:36;26.30;43.70
38854;DHT22;24606;51.992;4.198;2022-09-03T07:37:42;26.40;43.70
38854;DHT22;24606;51.992;4.198;2022-09-03T07:42:44;26.30;43.60
38854;DHT22;24606;51.992;4.198;2022-09-03T07:47:48;26.40;43.70
38854;DHT22;24606;51.992;4.198;2022-09-03T07:52:57;26.40;43.80
38854;DHT22;24606;51.992;4.198;2022-09-03T07:57:59;26.50;43.80
38854;DHT22;24606;51.992;4.198;2022-09-03T08:03:01;26.40;43.70
38854;DHT22;24606;51.992;4.198;2022-09-03T08:08:07;26.50;43.70
38854;DHT22;24606;51.992;4.198;2022-09-03T08:13:09;26.50;43.60
38854;DHT22;24606;51.992;4.198;2022-09-03T08:18:11;26.50;43.60
38854;DHT22;24606;51.992;4.198;2022-09-03T08:23:14;26.50;43.60
38854;DHT22;24606;51.992;4.198;2022-09-03T08:28:16;26.50;43.50
38854;DHT22;24606;51.992;4.198;2022-09-03T08:33:18;26.70;43.80
38854;DHT22;24606;51.992;4.198;2022-09-03T08:38:38;27.10;44.20
38854;DHT22;24606;51.992;4.198;2022-09-03T08:44:08;26.60;44.10
38854;DHT22;24606;51.992;4.198;2022-09-03T08:49:19;26.60;44.20
38854;DHT22;24606;51.992;4.198;2022-09-03T08:54:26;26.70;44.10
38854;DHT22;24606;51.992;4.198;2022-09-03T08:59:30;26.60;44.30
38854;DHT22;24606;51.992;4.198;2022-09-03T09:04:42;26.80;44.30
38854;DHT22;24606;51.992;4.198;2022-09-03T09:09:55;26.90;44.80
38854;DHT22;24606;51.992;4.198;2022-09-03T09:15:10;26.90;44.10
38854;DHT22;24606;51.992;4.198;2022-09-03T09:20:20;26.90;44.10
38854;DHT22;24606;51.992;4.198;2022-09-03T09:25:25;27.00;44.00
38854;DHT22;24606;51.992;4.198;2022-09-03T09:30:29;27.00;44.00
38854;DHT22;24606;51.992;4.198;2022-09-03T09:35:31;27.30;43.50
38854;DHT22;24606;51.992;4.198;2022-09-03T09:40:36;27.60;43.30
38854;DHT22;24606;51.992;4.198;2022-09-03T09:45:39;27.30;43.70
38854;DHT22;24606;51.992;4.198;2022-09-03T09:50:41;27.50;43.60
38854;DHT22;24606;51.992;4.198;2022-09-03T09:55:52;28.10;43.70
38854;DHT22;24606;51.992;4.198;2022-09-03T10:01:09;27.40;43.80
38854;DHT22;24606;51.992;4.198;2022-09-03T10:06:14;27.30;43.70
38854;DHT22;24606;51.992;4.198;2022-09-03T10:11:57;27.50;43.50
38854;DHT22;24606;51.992;4.198;2022-09-03T10:17:08;27.30;44.10
38854;DHT22;24606;51.992;4.198;2022-09-03T10:22:16;27.20;44.00
38854;DHT22;24606;51.992;4.198;2022-09-03T10:27:21;27.70;43.60
38854;DHT22;24606;51.992;4.198;2022-09-03T10:32:34;27.20;43.30
38854;DHT22;24606;51.992;4.198;2022-09-03T10:37:42;27.60;43.80
38854;DHT22;24606;51.992;4.198;2022-09-03T10:42:54;28.30;43.20
38854;DHT22;24606;51.992;4.198;2022-09-03T10:48:22;28.10;43.10
38854;DHT22;24606;51.992;4.198;2022-09-03T10:59:09;28.20;43.50
38854;DHT22;24606;51.992;4.198;2022-09-03T11:04:26;28.30;43.20
38854;DHT22;24606;51.992;4.198;2022-09-03T11:09:30;28.30;43.10
38854;DHT22;24606;51.992;4.198;2022-09-03T11:14:40;28.60;42.80
38854;DHT22;24606;51.992;4.198;2022-09-03T11:19:48;28.80;42.90
38854;DHT22;24606;51.992;4.198;2022-09-03T11:24:53;28.30;43.30
38854;DHT22;24606;51.992;4.198;2022-09-03T11:30:02;28.70;43.50
38854;DHT22;24606;51.992;4.198;2022-09-03T11:35:13;28.30;43.50
38854;DHT22;24606;51.992;4.198;2022-09-03T11:40:16;28.40;43.80
38854;DHT22;24606;51.992;4.198;2022-09-03T11:45:34;28.30;43.30
38854;DHT22;24606;51.992;4.198;2022-09-03T11:50:37;29.10;42.40
38854;DHT22;24606;51.992;4.198;2022-09-03T11:55:52;29.10;42.90
38854;DHT22;24606;51.992;4.198;2022-09-03T12:00:57;29.20;42.20
38854;DHT22;24606;51.992;4.198;2022-09-03T12:06:24;29.10;42.60
38854;DHT22;24606;51.992;4.198;2022-09-03T12:11:40;29.20;42.40
38854;DHT22;24606;51.992;4.198;2022-09-03T12:16:56;29.40;42.20
38854;DHT22;24606;51.992;4.198;2022-09-03T12:22:00;29.10;42.30
38854;DHT22;24606;51.992;4.198;2022-09-03T12:27:04;29.90;41.50
38854;DHT22;24606;51.992;4.198;2022-09-03T12:32:11;29.50;40.30
38854;DHT22;24606;51.992;4.198;2022-09-03T12:37:19;29.80;41.70
38854;DHT22;24606;51.992;4.198;2022-09-03T12:42:25;29.80;41.70
38854;DHT22;24606;51.992;4.198;2022-09-03T12:47:29;30.40;40.60
38854;DHT22;24606;51.992;4.198;2022-09-03T12:52:33;30.60;39.80
38854;DHT22;24606;51.992;4.198;2022-09-03T12:57:39;30.00;41.50
38854;DHT22;24606;51.992;4.198;2022-09-03T13:02:50;31.20;39.00
38854;DHT22;24606;51.992;4.198;2022-09-03T13:07:55;31.10;39.80
38854;DHT22;24606;51.992;4.198;2022-09-03T13:13:01;31.80;39.00
38854;DHT22;24606;51.992;4.198;2022-09-03T13:18:19;31.90;38.60
38854;DHT22;24606;51.992;4.198;2022-09-03T13:23:34;31.50;40.20
38854;DHT22;24606;51.992;4.198;2022-09-03T13:28:49;32.40;38.00
38854;DHT22;24606;51.992;4.198;2022-09-03T13:34:04;32.30;37.00
38854;DHT22;24606;51.992;4.198;2022-09-03T13:39:18;32.70;35.40
38854;DHT22;24606;51.992;4.198;2022-09-03T13:44:23;33.00;35.90
38854;DHT22;24606;51.992;4.198;2022-09-03T13:49:36;33.10;36.10
38854;DHT22;24606;51.992;4.198;2022-09-03T13:55:01;34.10;33.90
38854;DHT22;24606;51.992;4.198;2022-09-03T14:00:09;34.70;33.90
38854;DHT22;24606;51.992;4.198;2022-09-03T14:05:18;34.20;38.50
38854;DHT22;24606;51.992;4.198;2022-09-03T14:10:32;34.70;33.70
38854;DHT22;24606;51.992;4.198;2022-09-03T14:15:42;34.90;34.50
38854;DHT22;24606;51.992;4.198;2022-09-03T14:20:52;35.60;33.10
38854;DHT22;24606;51.992;4.198;2022-09-03T14:25:56;35.80;34.30
38854;DHT22;24606;51.992;4.198;2022-09-03T14:31:07;36.00;32.30
38854;DHT22;24606;51.992;4.198;2022-09-03T14:36:19;36.10;36.30
38854;DHT22;24606;51.992;4.198;2022-09-03T14:41:43;35.90;33.60
38854;DHT22;24606;51.992;4.198;2022-09-03T14:46:59;36.00;38.80
38854;DHT22;24606;51.992;4.198;2022-09-03T14:52:17;37.30;35.70
38854;DHT22;24606;51.992;4.198;2022-09-03T14:57:42;36.80;32.00
38854;DHT22;24606;51.992;4.198;2022-09-03T15:08:43;38.00;33.60
38854;DHT22;24606;51.992;4.198;2022-09-03T15:13:52;38.20;31.90
38854;DHT22;24606;51.992;4.198;2022-09-03T15:19:05;37.80;32.30
38854;DHT22;24606;51.992;4.198;2022-09-03T15:24:21;39.20;31.80
38854;DHT22;24606;51.992;4.198;2022-09-03T15:29:36;38.90;33.10
38854;DHT22;24606;51.992;4.198;2022-09-03T15:34:58;39.10;30.50
38854;DHT22;24606;51.992;4.198;2022-09-03T15:40:08;39.10;35.30
38854;DHT22;24606;51.992;4.198;2022-09-03T15:45:20;40.00;33.70
38854;DHT22;24606;51.992;4.198;2022-09-03T15:50:32;39.40;34.90
38854;DHT22;24606;51.992;4.198;2022-09-03T15:55:38;39.40;30.90
38854;DHT22;24606;51.992;4.198;2022-09-03T16:00:52;40.00;34.70
38854;DHT22;24606;51.992;4.198;2022-09-03T16:05:59;39.00;36.70
38854;DHT22;24606;51.992;4.198;2022-09-03T16:11:07;38.80;33.30
38854;DHT22;24606;51.992;4.198;2022-09-03T16:16:15;38.90;38.60
38854;DHT22;24606;51.992;4.198;2022-09-03T16:21:25;37.80;39.90
38854;DHT22;24606;51.992;4.198;2022-09-03T16:26:33;37.70;40.20
38854;DHT22;24606;51.992;4.198;2022-09-03T16:31:48;38.80;36.60
38854;DHT22;24606;51.992;4.198;2022-09-03T16:37:02;38.20;38.60
38854;DHT22;24606;51.992;4.198;2022-09-03T16:42:13;38.50;37.30
38854;DHT22;24606;51.992;4.198;2022-09-03T16:47:28;38.70;33.40
38854;DHT22;24606;51.992;4.198;2022-09-03T16:52:40;38.50;39.20
38854;DHT22;24606;51.992;4.198;2022-09-03T16:58:04;38.60;37.90
38854;DHT22;24606;51.992;4.198;2022-09-03T17:03:21;38.80;39.30
38854;DHT22;24606;51.992;4.198;2022-09-03T17:08:33;38.70;40.30
38854;DHT22;24606;51.992;4.198;2022-09-03T17:13:58;39.00;35.70
38854;DHT22;24606;51.992;4.198;2022-09-03T17:19:08;38.60;40.50
38854;DHT22;24606;51.992;4.198;2022-09-03T17:24:34;38.50;37.30
38854;DHT22;24606;51.992;4.198;2022-09-03T17:35:08;36.60;46.20
38854;DHT22;24606;51.992;4.198;2022-09-03T17:40:22;36.00;46.70
38854;DHT22;24606;51.992;4.198;2022-09-03T17:45:36;33.90;46.70
38854;DHT22;24606;51.992;4.198;2022-09-03T17:50:48;34.20;50.70
38854;DHT22;24606;51.992;4.198;2022-09-03T17:56:00;34.30;50.60
38854;DHT22;24606;51.992;4.198;2022-09-03T18:01:12;34.60;51.80
38854;DHT22;24606;51.992;4.198;2022-09-03T18:06:23;33.90;46.80
38854;DHT22;24606;51.992;4.198;2022-09-03T18:11:30;34.00;49.60
38854;DHT22;24606;51.992;4.198;2022-09-03T18:16:40;34.00;49.00
38854;DHT22;24606;51.992;4.198;2022-09-03T18:21:46;33.90;48.70
38854;DHT22;24606;51.992;4.198;2022-09-03T18:27:09;33.70;48.80
38854;DHT22;24606;51.992;4.198;2022-09-03T18:32:31;33.60;48.80
38854;DHT22;24606;51.992;4.198;2022-09-03T18:37:50;33.20;49.30
38854;DHT22;24606;51.992;4.198;2022-09-03T18:43:15;33.10;47.90
38854;DHT22;24606;51.992;4.198;2022-09-03T18:48:46;33.20;49.30
38854;DHT22;24606;51.992;4.198;2022-09-03T18:54:19;33.10;49.00
38854;DHT22;24606;51.992;4.198;2022-09-03T19:00:12;32.90;48.50
38854;DHT22;24606;51.992;4.198;2022-09-03T19:05:34;32.70;48.40
38854;DHT22;24606;51.992;4.198;2022-09-03T19:11:06;32.60;48.20
38854;DHT22;24606;51.992;4.198;2022-09-03T19:16:39;32.40;47.90
38854;DHT22;24606;51.992;4.198;2022-09-03T19:22:07;32.30;47.80
38854;DHT22;24606;51.992;4.198;2022-09-03T19:27:30;32.30;47.80
38854;DHT22;24606;51.992;4.198;2022-09-03T19:33:02;32.20;47.70
38854;DHT22;24606;51.992;4.198;2022-09-03T19:38:37;32.00;47.70
38854;DHT22;24606;51.992;4.198;2022-09-03T19:44:08;32.00;47.70
38854;DHT22;24606;51.992;4.198;2022-09-03T19:49:42;31.90;47.70
38854;DHT22;24606;51.992;4.198;2022-09-03T19:55:07;31.80;47.60
38854;DHT22;24606;51.992;4.198;2022-09-03T20:00:30;31.70;47.70
38854;DHT22;24606;51.992;4.198;2022-09-03T20:05:51;31.70;47.70
38854;DHT22;24606;51.992;4.198;2022-09-03T20:11:16;31.60;47.70
38854;DHT22;24606;51.992;4.198;2022-09-03T20:16:22;31.60;47.90
38854;DHT22;24606;51.992;4.198;2022-09-03T20:21:29;31.50;47.70
38854;DHT22;24606;51.992;4.198;2022-09-03T20:26:41;31.40;47.80
38854;DHT22;24606;51.992;4.198;2022-09-03T20:31:52;31.60;48.00
38854;DHT22;24606;51.992;4.198;2022-09-03T20:37:10;31.10;47.80
38854;DHT22;24606;51.992;4.198;2022-09-03T20:42:27;31.10;47.90
38854;DHT22;24606;51.992;4.198;2022-09-03T20:47:45;31.00;48.00
38854;DHT22;24606;51.992;4.198;2022-09-03T20:52:55;30.90;48.00
38854;DHT22;24606;51.992;4.198;2022-09-03T20:58:06;30.90;48.20
38854;DHT22;24606;51.992;4.198;2022-09-03T21:03:15;30.90;48.10
38854;DHT22;24606;51.992;4.198;2022-09-03T21:08:37;30.90;48.20
38854;DHT22;24606;51.992;4.198;2022-09-03T21:13:44;30.80;48.30
38854;DHT22;24606;51.992;4.198;2022-09-03T21:18:53;30.80;48.40
38854;DHT22;24606;51.992;4.198;2022-09-03T21:24:03;30.70;48.40
38854;DHT22;24606;51.992;4.198;2022-09-03T21:29:12;30.70;48.40
38854;DHT22;24606;51.992;4.198;2022-09-03T21:34:20;30.60;48.50
38854;DHT22;24606;51.992;4.198;2022-09-03T21:39:27;30.50;48.50
38854;DHT22;24606;51.992;4.198;2022-09-03T21:44:51;30.40;48.70
38854;DHT22;24606;51.992;4.198;2022-09-03T21:50:02;30.40;48.60
38854;DHT22;24606;51.992;4.198;2022-09-03T21:55:19;30.40;48.70
38854;DHT22;24606;51.992;4.198;2022-09-03T22:00:27;30.30;48.60
38854;DHT22;24606;51.992;4.198;2022-09-03T22:05:40;30.20;48.70
38854;DHT22;24606;51.992;4.198;2022-09-03T22:10:53;30.20;48.70
38854;DHT22;24606;51.992;4.198;2022-09-03T22:16:02;30.10;48.70
38854;DHT22;24606;51.992;4.198;2022-09-03T22:21:13;30.10;48.70
38854;DHT22;24606;51.992;4.198;2022-09-03T22:26:24;30.10;48.80
38854;DHT22;24606;51.992;4.198;2022-09-03T22:31:32;30.00;48.80
38854;DHT22;24606;51.992;4.198;2022-09-03T22:36:39;28.80;48.00
38854;DHT22;24606;51.992;4.198;2022-09-03T22:42:06;30.00;48.80
38854;DHT22;24606;51.992;4.198;2022-09-03T22:47:17;29.80;48.80
38854;DHT22;24606;51.992;4.198;2022-09-03T22:52:28;29.80;48.80
38854;DHT22;24606;51.992;4.198;2022-09-03T22:57:36;29.80;48.90
38854;DHT22;24606;51.992;4.198;2022-09-03T23:02:44;29.70;48.90
38854;DHT22;24606;51.992;4.198;2022-09-03T23:07:50;29.70;48.90
38854;DHT22;24606;51.992;4.198;2022-09-03T23:13:03;29.70;49.00
38854;DHT22;24606;51.992;4.198;2022-09-03T23:18:11;29.60;49.00
38854;DHT22;24606;51.992;4.198;2022-09-03T23:23:17;30.90;49.90
38854;DHT22;24606;51.992;4.198;2022-09-03T23:28:23;29.50;49.00
38854;DHT22;24606;51.992;4.198;2022-09-03T23:33:28;29.50;49.00
38854;DHT22;24606;51.992;4.198;2022-09-03T23:38:37;29.50;49.10
38854;DHT22;24606;51.992;4.198;2022-09-03T23:44:06;29.40;49.10
38854;DHT22;24606;51.992;4.198;2022-09-03T23:49:24;29.30;49.10
38854;DHT22;24606;51.992;4.198;2022-09-03T23:54:36;29.70;49.40
38854;DHT22;24606;51.992;4.198;2022-09-03T23:59:51;29.30;49.20
